KNTU

Oceana NAS / Apollo Soucek Field Airport

Virginia Beach, Virginia, USA
METAR KNTU 200956Z 20010G19KT 9SM -RA OVC100 17/15 A2944 RMK AO2 RAB49 SLP970 P0001 T01670150
Observed Flight Rules
Jan-20 @ 09:56 UTC (an hour ago) Visual Flight Rules
Wind Visibility Clouds Conditions
200° at 10 knots
 Gusting to 19 knots
9 miles
  • Overcast at 10,000' AGL
  • Light Rain
Temperatures Readings Precipitation
Current 17°C / 63°F
Dewpoint 15°C / 59°F
Humidity 88%
Altimeter 29.44" Hg
Pressure 997 hPa
Elevation 7
Current Rain 0.01
METAR KNTU 200956Z 20010G19KT 9SM -RA OVC100 17/15 A2944 RMK AO2 RAB49 SLP970 P0001 T01670150
Observed Flight Rules
Jan-20 @ 09:56 UTC
(an hour ago)
VFR
Wind Visibility
200° at 10 knots
 Gusting to 19 knots
9 miles
Clouds
  • Overcast at 10,000' AGL
Conditions
  • Light Rain
Temperature Dewpoint
17°C / 63°F 15°C / 59°F
Humidity Altimeter Pressure
88% 29.44" Hg 997 hPa
Current Rain
0.01